createdAt,value
2019-03-21T00:04:28.797Z,9.13
2019-03-21T00:09:21.173Z,11.00
2019-03-21T00:14:16.937Z,11.07
2019-03-21T00:19:09.526Z,11.67
2019-03-21T00:24:02.157Z,21.20
2019-03-21T00:28:54.593Z,17.07
2019-03-21T00:33:47.334Z,12.53
2019-03-21T00:38:39.784Z,18.03
2019-03-21T00:43:32.122Z,16.60
2019-03-21T00:48:24.953Z,14.67
2019-03-21T00:53:17.657Z,13.67
2019-03-21T00:58:10.201Z,12.80
2019-03-21T01:03:03.828Z,14.77
2019-03-21T01:07:56.481Z,14.00
2019-03-21T01:12:49.071Z,10.97
2019-03-21T01:17:41.874Z,15.97
2019-03-21T01:22:34.378Z,15.50
2019-03-21T01:27:26.897Z,14.60
2019-03-21T01:32:19.605Z,12.67
2019-03-21T01:37:13.310Z,12.33
2019-03-21T01:42:06.249Z,14.07
2019-03-21T01:46:58.581Z,14.60
2019-03-21T01:51:51.170Z,18.80
2019-03-21T01:56:43.773Z,12.53
2019-03-21T02:01:36.708Z,15.60
2019-03-21T02:06:29.337Z,19.47
2019-03-21T02:11:21.794Z,37.50
2019-03-21T02:16:14.285Z,22.90
2019-03-21T02:21:06.842Z,13.93
2019-03-21T02:25:59.244Z,26.53
2019-03-21T02:30:53.147Z,30.97
2019-03-21T02:35:46.641Z,17.53
2019-03-21T02:40:39.048Z,14.70
2019-03-21T02:45:31.608Z,14.43
2019-03-21T02:50:33.249Z,18.20
2019-03-21T02:55:25.924Z,31.13
2019-03-21T03:00:21.300Z,19.57
2019-03-21T03:05:16.517Z,14.83
2019-03-21T03:10:23.679Z,13.70
2019-03-21T03:15:23.543Z,23.30
2019-03-21T03:20:17.847Z,23.43
2019-03-21T03:25:15.914Z,21.70
2019-03-21T03:30:15.054Z,15.63
2019-03-21T03:35:10.294Z,15.13
2019-03-21T03:40:03.256Z,16.30
2019-03-21T03:44:55.822Z,14.20
2019-03-21T03:49:48.205Z,15.03
2019-03-21T03:54:40.835Z,14.27
2019-03-21T03:59:33.552Z,15.60
2019-03-21T04:04:26.239Z,16.07
2019-03-21T04:09:18.965Z,14.17
2019-03-21T04:14:11.771Z,12.70
2019-03-21T04:19:04.187Z,13.00
2019-03-21T04:23:59.554Z,14.47
2019-03-21T04:28:50.546Z,16.20
2019-03-21T04:33:45.379Z,14.20
2019-03-21T04:38:37.773Z,14.27
2019-03-21T04:43:30.293Z,17.87
2019-03-21T04:48:22.685Z,14.97
2019-03-21T04:53:15.156Z,14.80
2019-03-21T04:58:07.334Z,14.53
2019-03-21T05:03:02.542Z,15.00
2019-03-21T05:07:55.016Z,15.97
2019-03-21T05:12:47.837Z,23.23
2019-03-21T05:17:40.585Z,15.33
2019-03-21T05:22:33.425Z,16.20
2019-03-21T05:27:25.926Z,19.70
2019-03-21T05:32:18.703Z,15.47
2019-03-21T05:41:55.771Z,15.13
2019-03-21T05:46:47.972Z,32.03
2019-03-21T05:51:40.510Z,17.37
2019-03-21T05:56:33.320Z,22.80
2019-03-21T06:01:28.998Z,14.57
2019-03-21T06:06:33.241Z,14.00
2019-03-21T06:11:25.841Z,14.00
2019-03-21T06:16:18.017Z,14.00
2019-03-21T06:21:22.785Z,20.73
2019-03-21T06:26:24.144Z,20.30
2019-03-21T06:31:16.784Z,26.30
2019-03-21T06:36:09.297Z,20.03
2019-03-21T06:41:01.605Z,20.23
2019-03-21T06:45:54.212Z,17.80
2019-03-21T06:50:46.970Z,21.67
2019-03-21T06:55:39.749Z,23.17
2019-03-21T07:00:32.137Z,25.67
2019-03-21T07:05:26.741Z,23.03
2019-03-21T07:10:18.729Z,21.87
2019-03-21T07:15:12.602Z,52.60
2019-03-21T07:20:07.458Z,49.90
2019-03-21T07:25:00.069Z,45.13
2019-03-21T07:29:52.497Z,44.10
2019-03-21T07:34:44.981Z,69.80
2019-03-21T07:39:37.293Z,54.85
2019-03-21T07:44:29.670Z,43.80
2019-03-21T07:49:22.075Z,123.13
2019-03-21T07:54:14.661Z,52.25
2019-03-21T07:59:07.290Z,29.70
2019-03-21T08:04:02.737Z,17.10
2019-03-21T08:08:54.202Z,47.48
2019-03-21T08:13:46.896Z,22.42
2019-03-21T08:18:39.421Z,29.63
2019-03-21T08:23:31.617Z,14.45
2019-03-21T08:28:24.325Z,14.20
2019-03-21T08:33:16.945Z,13.10
2019-03-21T08:38:09.648Z,13.08
2019-03-21T08:43:01.969Z,11.35
2019-03-21T08:47:54.569Z,9.83
2019-03-21T08:52:47.145Z,7.62
2019-03-21T08:57:39.440Z,7.67
2019-03-21T09:02:31.916Z,7.37
2019-03-21T09:07:25.054Z,6.80
2019-03-21T09:12:17.476Z,6.50
2019-03-21T09:17:09.945Z,6.80
2019-03-21T09:22:02.578Z,4.70
2019-03-21T09:26:55.551Z,4.58
2019-03-21T09:31:48.223Z,3.60
2019-03-21T09:36:40.634Z,5.25
2019-03-21T09:41:33.215Z,4.20
2019-03-21T09:46:25.884Z,3.90
2019-03-21T09:51:18.447Z,3.52
2019-03-21T09:56:10.610Z,3.62
2019-03-21T10:01:03.519Z,3.12
2019-03-21T10:05:55.966Z,3.05
2019-03-21T10:10:48.688Z,3.30
2019-03-21T10:15:41.168Z,3.87
2019-03-21T10:20:33.826Z,4.22
2019-03-21T10:25:26.989Z,3.62
2019-03-21T10:30:34.622Z,3.10
2019-03-21T10:35:27.055Z,3.47
2019-03-21T10:40:19.803Z,3.02
2019-03-21T10:45:12.324Z,3.60
2019-03-21T10:50:06.821Z,3.65
2019-03-21T10:54:59.538Z,4.00
2019-03-21T10:59:52.133Z,4.28
2019-03-21T11:04:44.950Z,3.83
2019-03-21T11:09:37.515Z,3.10
2019-03-21T11:14:30.093Z,3.60
2019-03-21T11:19:22.456Z,3.55
2019-03-21T11:24:15.122Z,3.90
2019-03-21T11:29:07.607Z,3.85
2019-03-21T11:33:59.921Z,3.45
2019-03-21T11:38:52.452Z,2.95
2019-03-21T11:43:45.277Z,3.17
2019-03-21T11:48:37.955Z,3.65
2019-03-21T11:53:30.696Z,3.00
2019-03-21T11:58:23.351Z,3.20
2019-03-21T12:03:16.008Z,3.00
2019-03-21T12:08:08.858Z,2.77
2019-03-21T12:13:01.533Z,2.98
2019-03-21T12:17:54.206Z,3.30
2019-03-21T12:22:47.452Z,3.17
2019-03-21T12:27:40.161Z,2.85
2019-03-21T12:32:32.776Z,2.80
2019-03-21T12:37:25.277Z,3.17
2019-03-21T12:42:17.817Z,2.98
2019-03-21T12:47:10.166Z,3.12
2019-03-21T12:52:02.566Z,2.75
2019-03-21T12:56:55.097Z,3.20
2019-03-21T13:01:47.686Z,2.40
2019-03-21T13:06:40.194Z,2.90
2019-03-21T13:11:32.593Z,2.40
2019-03-21T13:16:25.128Z,2.70
2019-03-21T13:21:17.641Z,2.55
2019-03-21T13:26:10.328Z,2.37
2019-03-21T13:31:02.803Z,2.60
2019-03-21T13:35:55.341Z,2.45
2019-03-21T13:40:47.748Z,2.15
2019-03-21T13:45:40.433Z,2.42
2019-03-21T13:50:32.818Z,2.55
2019-03-21T13:55:25.293Z,2.60
2019-03-21T14:00:20.213Z,2.20
2019-03-21T14:05:13.241Z,2.20
2019-03-21T14:10:08.726Z,2.20
2019-03-21T14:15:01.208Z,1.98
2019-03-21T14:19:53.817Z,2.00
2019-03-21T14:24:46.265Z,2.25
2019-03-21T14:29:38.433Z,2.22
2019-03-21T14:34:31.149Z,2.02
2019-03-21T14:39:23.413Z,2.00
2019-03-21T14:44:15.871Z,1.92
2019-03-21T14:49:08.265Z,2.10
2019-03-21T14:54:01.223Z,2.02
2019-03-21T14:58:53.579Z,1.62
2019-03-21T15:03:46.309Z,1.90
2019-03-21T15:08:38.630Z,2.05
2019-03-21T15:13:31.386Z,2.40
2019-03-21T15:18:24.018Z,2.45
2019-03-21T15:23:16.773Z,2.58
2019-03-21T15:28:09.473Z,2.35
2019-03-21T15:33:01.858Z,3.60
2019-03-21T15:37:54.244Z,2.20
2019-03-21T15:42:46.724Z,2.80
2019-03-21T15:47:39.471Z,2.50
2019-03-21T15:52:32.849Z,2.65
2019-03-21T15:57:25.304Z,2.42
2019-03-21T16:02:17.809Z,2.75
2019-03-21T16:07:10.528Z,3.60
2019-03-21T16:12:02.916Z,3.47
2019-03-21T16:16:55.608Z,4.08
2019-03-21T16:21:48.049Z,4.60
2019-03-21T16:26:42.613Z,5.70
2019-03-21T16:31:36.014Z,6.10
2019-03-21T16:36:28.495Z,6.62
2019-03-21T16:41:21.068Z,6.75
2019-03-21T16:46:13.726Z,6.92
2019-03-21T16:51:06.650Z,6.80
2019-03-21T16:55:58.822Z,6.97
2019-03-21T17:00:51.487Z,6.58
2019-03-21T17:05:44.073Z,6.78
2019-03-21T17:10:36.646Z,6.58
2019-03-21T17:15:28.882Z,6.55
2019-03-21T17:20:21.986Z,6.95
2019-03-21T17:25:14.867Z,6.67
2019-03-21T17:30:14.997Z,6.22
2019-03-21T17:35:07.697Z,6.45
2019-03-21T17:40:00.324Z,6.42
2019-03-21T17:44:54.515Z,5.83
2019-03-21T17:49:47.615Z,6.30
2019-03-21T17:54:41.836Z,5.95
2019-03-21T17:59:35.859Z,6.12
2019-03-21T18:04:30.608Z,5.67
2019-03-21T18:09:23.305Z,5.37
2019-03-21T18:14:15.703Z,5.35
2019-03-21T18:19:28.356Z,5.33
2019-03-21T18:24:21.832Z,5.25
2019-03-21T18:29:14.340Z,5.90
2019-03-21T18:34:07.568Z,33.50
2019-03-21T18:39:00.267Z,30.85
2019-03-21T18:43:53.546Z,48.98
2019-03-21T18:48:46.659Z,31.68
2019-03-21T18:53:39.183Z,41.85
2019-03-21T18:58:32.037Z,41.13
2019-03-21T19:03:24.555Z,15.23
2019-03-21T19:08:17.193Z,22.93
2019-03-21T19:13:09.973Z,28.50
2019-03-21T19:18:04.193Z,41.33
2019-03-21T19:22:56.999Z,33.17
2019-03-21T19:27:49.579Z,21.67
2019-03-21T19:32:43.982Z,15.53
2019-03-21T19:37:36.995Z,27.55
2019-03-21T19:42:31.505Z,18.63
2019-03-21T19:47:29.842Z,13.50
2019-03-21T19:52:19.584Z,11.40
2019-03-21T19:57:12.031Z,16.53
2019-03-21T20:02:04.697Z,13.73
2019-03-21T20:06:57.331Z,8.87
2019-03-21T20:11:50.061Z,9.00
2019-03-21T20:16:44.265Z,8.23
2019-03-21T20:21:47.316Z,7.53
2019-03-21T20:26:31.170Z,7.67
2019-03-21T20:31:28.763Z,9.27
2019-03-21T20:36:21.484Z,15.53
2019-03-21T20:41:15.277Z,13.07
2019-03-21T20:46:08.262Z,10.83
2019-03-21T20:51:00.986Z,7.77
2019-03-21T20:55:54.220Z,10.43
2019-03-21T21:00:47.102Z,12.80
2019-03-21T21:05:41.606Z,10.17
2019-03-21T21:10:35.487Z,9.23
2019-03-21T21:15:27.880Z,14.87
2019-03-21T21:20:20.443Z,13.40
2019-03-21T21:25:14.331Z,10.77
2019-03-21T21:30:12.827Z,18.80
2019-03-21T21:35:07.352Z,13.63
2019-03-21T21:40:00.030Z,22.10
2019-03-21T21:44:52.971Z,14.33
2019-03-21T21:49:46.237Z,15.93
2019-03-21T21:54:38.973Z,25.57
2019-03-21T21:59:32.506Z,11.30
2019-03-21T22:04:25.159Z,10.03
2019-03-21T22:09:20.845Z,10.77
2019-03-21T22:14:13.284Z,10.53
2019-03-21T22:19:05.476Z,7.97
2019-03-21T22:23:57.907Z,9.00
2019-03-21T22:28:50.633Z,9.27
2019-03-21T22:33:43.238Z,10.37
2019-03-21T22:38:35.777Z,11.53
2019-03-21T22:43:28.305Z,11.33
2019-03-21T22:48:21.123Z,12.97
2019-03-21T22:53:13.522Z,12.87
2019-03-21T22:58:05.813Z,12.50
2019-03-21T23:02:58.517Z,11.80
2019-03-21T23:07:51.021Z,14.00
2019-03-21T23:12:43.857Z,13.73
2019-03-21T23:17:38.561Z,11.70
2019-03-21T23:22:30.952Z,10.40
2019-03-21T23:27:23.492Z,11.70
2019-03-21T23:32:15.773Z,12.73
2019-03-21T23:37:08.354Z,13.63
2019-03-21T23:42:00.867Z,8.83
2019-03-21T23:47:12.786Z,11.80
2019-03-21T23:52:05.277Z,11.93
2019-03-21T23:57:04.831Z,14.80
